Time;durP1;ratioP1;P1;durP2;ratioP2;P2;SDS_P1;SDS_P2;PMS_P1;PMS_P2;Temp;Humidity;BMP_temperature;BMP_pressure;BME280_temperature;BME280_humidity;BME280_pressure;Samples;Min_cycle;Max_cycle;Signal;HPM_P1;HPM_P2
2021/12/04 00:01:10;;;;;;;16.25;14.00;;;4.50;99.90;;;;;;5093380;28;20023;-66
2021/12/04 00:03:40;;;;;;;16.00;14.35;;;4.50;99.90;;;;;;5093039;28;20028;-66
2021/12/04 00:06:10;;;;;;;14.75;13.13;;;4.50;99.90;;;;;;5093144;28;20048;-66
2021/12/04 00:08:36;;;;;;;15.70;13.40;;;4.50;99.90;;;;;;5074879;28;20467;-67
2021/12/04 00:11:03;;;;;;;15.07;13.52;;;4.50;99.90;;;;;;5093251;28;20074;-67
2021/12/04 00:13:29;;;;;;;16.42;14.73;;;4.50;99.90;;;;;;5074640;28;20066;-66
2021/12/04 00:15:54;;;;;;;16.60;14.82;;;4.50;99.90;;;;;;5093056;28;20391;-66
2021/12/04 00:18:20;;;;;;;15.90;13.15;;;4.50;99.90;;;;;;5074806;28;20549;-66
2021/12/04 00:20:46;;;;;;;15.60;14.00;;;4.50;99.90;;;;;;5093078;28;20082;-67
2021/12/04 00:23:12;;;;;;;15.95;14.25;;;4.50;99.90;;;;;;5092988;28;20055;-66
2021/12/04 00:25:38;;;;;;;16.13;14.40;;;4.50;99.90;;;;;;5074859;28;20417;-66
2021/12/04 00:28:04;;;;;;;15.20;13.70;;;4.50;99.90;;;;;;5092850;28;20024;-66
2021/12/04 00:30:30;;;;;;;16.05;14.38;;;4.50;99.90;;;;;;5092824;28;20020;-66
2021/12/04 00:33:19;;;;;;;15.82;14.07;;;4.50;99.90;;;;;;5074784;28;20110;-66
2021/12/04 00:35:46;;;;;;;15.98;14.35;;;4.50;99.90;;;;;;5092291;28;20409;-66
2021/12/04 00:49:10;;;;;;;16.38;13.55;;;4.50;99.90;;;;;;5092733;28;20031;-67
2021/12/04 00:51:39;;;;;;;17.40;15.52;;;4.50;99.90;;;;;;5092738;28;20115;-66
2021/12/04 00:54:05;;;;;;;18.48;16.55;;;4.50;99.90;;;;;;5092663;28;20055;-66
2021/12/04 00:56:32;;;;;;;18.10;15.45;;;4.50;99.90;;;;;;5092619;28;20472;-66
2021/12/04 00:58:58;;;;;;;21.17;15.10;;;4.50;99.90;;;;;;5092588;28;20024;-66
2021/12/04 01:01:23;;;;;;;20.98;17.98;;;4.50;99.90;;;;;;5074578;28;20545;-67
2021/12/04 01:03:49;;;;;;;17.77;15.50;;;4.50;99.90;;;;;;5092134;28;20028;-66
2021/12/04 01:06:14;;;;;;;18.42;15.40;;;4.50;99.90;;;;;;5092603;28;20435;-66
2021/12/04 01:08:40;;;;;;;17.13;15.30;;;4.50;99.90;;;;;;5074379;28;20020;-67
2021/12/04 01:11:06;;;;;;;17.20;15.40;;;4.50;99.90;;;;;;5074409;28;20016;-66
2021/12/04 01:13:33;;;;;;;16.90;14.50;;;4.50;99.90;;;;;;5074158;28;20024;-66
2021/12/04 01:15:58;;;;;;;19.27;16.08;;;4.50;99.90;;;;;;5074361;28;20105;-66
2021/12/04 01:18:24;;;;;;;19.17;15.93;;;4.50;99.90;;;;;;5092121;28;20509;-66
2021/12/04 01:20:50;;;;;;;18.42;15.57;;;4.50;99.90;;;;;;5095581;28;20032;-66
2021/12/04 01:23:18;;;;;;;19.00;16.27;;;4.60;99.90;;;;;;5078125;28;20460;-67
2021/12/04 01:25:44;;;;;;;17.90;15.88;;;4.60;99.90;;;;;;5096329;28;20035;-66
2021/12/04 01:28:10;;;;;;;21.15;17.33;;;4.60;99.90;;;;;;5077960;28;20020;-66
2021/12/04 01:30:36;;;;;;;20.33;16.52;;;4.60;99.90;;;;;;5096119;28;20467;-66
2021/12/04 01:33:02;;;;;;;20.48;17.85;;;4.60;99.90;;;;;;5095998;28;20031;-67
2021/12/04 01:35:28;;;;;;;20.27;17.58;;;4.60;99.90;;;;;;5096148;28;20028;-66
2021/12/04 01:37:54;;;;;;;20.13;17.77;;;4.60;99.90;;;;;;5077795;28;20461;-66
2021/12/04 01:40:20;;;;;;;18.48;16.45;;;4.60;99.90;;;;;;5096095;28;20069;-66
2021/12/04 01:42:46;;;;;;;18.52;16.52;;;4.60;99.90;;;;;;5077735;28;20112;-66
2021/12/04 01:45:12;;;;;;;18.75;16.80;;;4.60;99.90;;;;;;5077481;28;20106;-66
2021/12/04 01:47:37;;;;;;;19.85;16.67;;;4.60;99.90;;;;;;5095769;28;20024;-67
2021/12/04 01:50:05;;;;;;;18.63;16.77;;;4.60;99.90;;;;;;5077715;28;20468;-67
2021/12/04 01:52:31;;;;;;;20.17;16.55;;;4.60;99.90;;;;;;5095755;28;20490;-66
2021/12/04 01:54:57;;;;;;;20.25;17.60;;;4.60;99.90;;;;;;5077509;28;20028;-66
2021/12/04 01:57:24;;;;;;;20.42;16.55;;;4.60;99.90;;;;;;5095612;28;20024;-66
2021/12/04 01:59:50;;;;;;;21.20;18.58;;;4.60;99.90;;;;;;5095591;28;20024;-66
2021/12/04 02:02:16;;;;;;;21.60;18.15;;;4.60;99.90;;;;;;5095550;28;20114;-67
2021/12/04 02:04:42;;;;;;;21.98;17.95;;;4.50;99.90;;;;;;5077029;28;20076;-67
2021/12/04 02:07:09;;;;;;;21.13;18.67;;;4.60;99.90;;;;;;5095472;28;20024;-66
2021/12/04 02:09:37;;;;;;;22.02;19.10;;;4.60;99.90;;;;;;5077254;28;20417;-66
2021/12/04 02:12:05;;;;;;;21.38;19.17;;;4.60;99.90;;;;;;5095373;28;20024;-66
2021/12/04 02:14:41;;;;;;;20.65;18.23;;;4.60;99.90;;;;;;5077372;28;20035;-67
2021/12/04 02:17:08;;;;;;;19.52;17.42;;;4.60;99.90;;;;;;5095018;28;20028;-66
2021/12/04 02:19:34;;;;;;;20.75;17.02;;;4.50;99.90;;;;;;5095253;28;20036;-66
2021/12/04 02:22:00;;;;;;;20.55;17.13;;;4.50;99.90;;;;;;5095328;28;20021;-67
2021/12/04 02:24:26;;;;;;;18.77;16.42;;;4.50;99.90;;;;;;5076894;28;20024;-66
2021/12/04 02:26:52;;;;;;;20.30;16.77;;;4.50;99.90;;;;;;5095147;28;20024;-66
2021/12/04 02:29:18;;;;;;;20.02;17.17;;;4.50;99.90;;;;;;5076717;28;20028;-67
2021/12/04 02:31:52;;;;;;;21.02;17.02;;;4.50;99.90;;;;;;5076681;28;20465;-66
2021/12/04 02:34:23;;;;;;;20.42;16.75;;;4.50;99.90;;;;;;5094866;28;20392;-66
2021/12/04 02:36:49;;;;;;;19.80;16.73;;;4.50;99.90;;;;;;5094810;28;20115;-66
2021/12/04 02:39:22;;;;;;;17.77;15.52;;;4.50;99.90;;;;;;5094837;28;20468;-66
2021/12/04 02:41:48;;;;;;;17.30;15.45;;;4.50;99.90;;;;;;5094748;28;20430;-66
2021/12/04 02:44:13;;;;;;;19.55;15.38;;;4.50;99.90;;;;;;5076542;28;20076;-66
2021/12/04 02:46:39;;;;;;;18.77;15.60;;;4.50;99.90;;;;;;5093495;28;20067;-66
2021/12/04 02:49:06;;;;;;;20.30;16.13;;;4.40;99.90;;;;;;5074212;28;20063;-66
2021/12/04 02:51:32;;;;;;;20.10;16.15;;;4.50;99.90;;;;;;5056617;28;20158;-66
2021/12/04 02:53:58;;;;;;;21.83;17.08;;;4.50;99.90;;;;;;5055697;28;20514;-66
2021/12/04 02:56:25;;;;;;;19.45;15.98;;;4.50;99.90;;;;;;5056292;28;20021;-66
2021/12/04 02:58:54;;;;;;;23.20;16.45;;;4.50;99.90;;;;;;5085184;28;20016;-66
2021/12/04 03:01:20;;;;;;;21.40;14.85;;;4.50;99.90;;;;;;5094429;28;20024;-66
2021/12/04 03:03:47;;;;;;;22.92;16.13;;;4.50;99.90;;;;;;5094099;28;20028;-66
2021/12/04 03:06:12;;;;;;;21.98;15.93;;;4.50;99.90;;;;;;5094468;28;20103;-66
2021/12/04 03:08:38;;;;;;;18.85;15.65;;;4.60;99.90;;;;;;5094290;28;20103;-66
2021/12/04 03:11:03;;;;;;;20.65;14.30;;;4.60;99.90;;;;;;5094091;28;20146;-66
2021/12/04 03:13:29;;;;;;;18.88;15.23;;;4.60;99.90;;;;;;5076093;28;20487;-67
2021/12/04 03:15:58;;;;;;;19.10;16.60;;;4.60;99.90;;;;;;5094274;28;20099;-66
2021/12/04 03:18:24;;;;;;;19.05;15.45;;;4.60;99.90;;;;;;5093888;28;20035;-66
2021/12/04 03:20:52;;;;;;;18.70;14.25;;;4.60;99.90;;;;;;5094123;28;20052;-66
2021/12/04 03:23:26;;;;;;;21.95;15.32;;;4.60;99.90;;;;;;5075875;28;20364;-66
2021/12/04 03:25:55;;;;;;;21.77;15.70;;;4.60;99.90;;;;;;5093995;28;20052;-66
2021/12/04 03:28:21;;;;;;;20.50;14.85;;;4.70;99.90;;;;;;5093792;28;20376;-66
2021/12/04 03:30:52;;;;;;;18.95;15.77;;;4.70;99.90;;;;;;5093945;28;20028;-67
2021/12/04 03:41:14;;;;;;;26.73;18.10;;;4.70;99.90;;;;;;5093855;28;20403;-66
2021/12/04 03:43:40;;;;;;;26.08;17.00;;;4.70;99.90;;;;;;5075022;28;20024;-66
2021/12/04 03:46:09;;;;;;;23.63;17.48;;;4.70;99.90;;;;;;5075477;28;20029;-66
2021/12/04 03:51:05;;;;;;;26.85;17.30;;;4.70;99.90;;;;;;5093799;28;20487;-67
2021/12/04 03:53:31;;;;;;;28.27;19.70;;;4.70;99.90;;;;;;5075243;28;20035;-66
2021/12/04 03:55:57;;;;;;;27.55;18.52;;;4.80;99.90;;;;;;5093406;28;20024;-67
2021/12/04 03:58:23;;;;;;;31.45;20.45;;;4.70;99.90;;;;;;5093332;28;20387;-66
2021/12/04 04:00:50;;;;;;;28.50;19.17;;;4.80;99.90;;;;;;5091482;28;20040;-66
2021/12/04 04:03:15;;;;;;;27.95;18.35;;;4.80;99.90;;;;;;5093074;28;20145;-66
2021/12/04 04:05:41;;;;;;;27.88;18.63;;;4.80;99.90;;;;;;5092836;28;20123;-66
2021/12/04 04:08:08;;;;;;;29.88;19.35;;;4.80;99.90;;;;;;5075039;28;20495;-66
2021/12/04 04:10:34;;;;;;;28.90;18.17;;;4.80;99.90;;;;;;5093183;28;20039;-66
2021/12/04 04:12:59;;;;;;;28.13;18.60;;;4.80;99.90;;;;;;5075012;28;20024;-66
2021/12/04 04:15:25;;;;;;;29.38;18.88;;;4.80;99.90;;;;;;5093003;28;20115;-66
2021/12/04 04:17:51;;;;;;;25.60;17.15;;;4.80;99.90;;;;;;5074699;28;20038;-66
2021/12/04 04:20:20;;;;;;;27.70;17.67;;;4.80;99.90;;;;;;5093124;28;20091;-66
2021/12/04 04:22:47;;;;;;;25.88;17.25;;;4.70;99.90;;;;;;5092984;28;20016;-66
2021/12/04 04:25:15;;;;;;;28.48;18.73;;;4.70;99.90;;;;;;5074632;28;20020;-66
2021/12/04 04:27:41;;;;;;;29.88;17.85;;;4.70;99.90;;;;;;5074604;28;20066;-66
2021/12/04 04:30:13;;;;;;;28.05;17.67;;;4.70;99.90;;;;;;5074503;28;20492;-66
2021/12/04 04:32:38;;;;;;;29.30;17.95;;;4.70;99.90;;;;;;5092926;28;20518;-66
2021/12/04 04:35:15;;;;;;;33.75;18.05;;;4.70;99.90;;;;;;5092655;28;20035;-66
2021/12/04 04:37:53;;;;;;;27.77;17.77;;;4.70;99.90;;;;;;5092793;28;20479;-66
2021/12/04 04:57:19;;;;;;;25.85;17.80;;;4.70;99.90;;;;;;5092868;28;20028;-66
2021/12/04 05:12:52;;;;;;;21.50;13.60;;;4.80;99.90;;;;;;5095275;28;20031;-66
2021/12/04 05:15:34;;;;;;;22.08;13.25;;;4.80;99.90;;;;;;5093992;28;20056;-67
2021/12/04 05:18:10;;;;;;;20.90;12.75;;;4.80;99.90;;;;;;5076765;28;20024;-67
2021/12/04 05:20:38;;;;;;;21.08;13.52;;;4.80;99.90;;;;;;5094964;28;20099;-66
2021/12/04 05:23:07;;;;;;;20.13;14.02;;;4.80;99.90;;;;;;5095108;28;20099;-66
2021/12/04 05:25:35;;;;;;;18.85;12.55;;;4.80;99.90;;;;;;5076810;28;20030;-67
2021/12/04 05:28:05;;;;;;;26.67;14.73;;;4.70;99.90;;;;;;5094981;28;20110;-66
2021/12/04 05:30:31;;;;;;;22.95;14.20;;;4.70;99.90;;;;;;5094790;28;20472;-66
2021/12/04 05:32:56;;;;;;;18.10;12.48;;;4.70;99.90;;;;;;5095035;28;20049;-66
2021/12/04 05:35:22;;;;;;;19.33;12.73;;;4.70;99.90;;;;;;5094836;28;20042;-66
2021/12/04 05:37:48;;;;;;;21.13;11.35;;;4.70;99.90;;;;;;5094628;28;20039;-66
2021/12/04 05:40:15;;;;;;;17.13;11.98;;;4.70;99.90;;;;;;5076626;28;20468;-66
2021/12/04 05:42:42;;;;;;;17.80;11.43;;;4.70;99.90;;;;;;5076955;28;20052;-66
2021/12/04 05:45:15;;;;;;;16.60;10.18;;;4.70;99.90;;;;;;5094610;28;20024;-66
2021/12/04 05:47:54;;;;;;;16.17;10.10;;;4.70;99.90;;;;;;5094639;28;20031;-66
2021/12/04 05:56:04;;;;;;;15.18;8.18;;;4.60;99.90;;;;;;5057075;28;20456;-66
2021/12/04 05:58:32;;;;;;;12.68;7.45;;;4.70;99.90;;;;;;5094578;28;20028;-66
2021/12/04 06:01:07;;;;;;;11.77;7.78;;;4.70;99.90;;;;;;5094478;28;20484;-66
2021/12/04 06:03:33;;;;;;;12.23;7.63;;;4.70;99.90;;;;;;5081213;28;20036;-66
2021/12/04 06:07:08;;;;;;;11.25;7.20;;;4.70;99.90;;;;;;5089207;28;20381;-67
2021/12/04 06:09:34;;;;;;;11.05;6.70;;;4.70;99.90;;;;;;5089774;28;20078;-67
2021/12/04 06:12:07;;;;;;;12.63;7.20;;;4.70;99.90;;;;;;5090363;28;20020;-67
2021/12/04 06:14:33;;;;;;;11.88;7.43;;;4.70;99.90;;;;;;5088917;28;20032;-68
2021/12/04 06:16:58;;;;;;;14.02;7.53;;;4.70;99.90;;;;;;5090056;28;20020;-67
2021/12/04 06:22:37;;;;;;;9.70;7.00;;;4.70;99.90;;;;;;5090095;28;20039;-67
2021/12/04 06:24:53;;;;;;;9.10;7.57;;;4.70;99.90;;;;;;5089888;28;20027;-67
2021/12/04 06:27:19;;;;;;;8.35;6.88;;;4.70;99.90;;;;;;5089903;28;20033;-67
2021/12/04 06:29:45;;;;;;;9.00;7.13;;;4.70;99.90;;;;;;5089824;28;20031;-67
2021/12/04 06:32:10;;;;;;;9.38;6.82;;;4.60;99.90;;;;;;5083411;28;20110;-67
2021/12/04 06:34:36;;;;;;;9.80;7.60;;;4.60;99.90;;;;;;5073483;28;20027;-67
2021/12/04 06:37:02;;;;;;;7.03;6.32;;;4.70;99.90;;;;;;5069155;28;20099;-67
2021/12/04 06:39:27;;;;;;;8.52;7.18;;;4.60;99.90;;;;;;5069748;28;20377;-67
2021/12/04 06:41:53;;;;;;;8.23;7.20;;;4.60;99.90;;;;;;5070550;28;20492;-68
2021/12/04 06:44:18;;;;;;;9.93;7.47;;;4.60;99.90;;;;;;5070433;28;20028;-68
2021/12/04 06:46:44;;;;;;;9.68;7.68;;;4.60;99.90;;;;;;5073062;28;20020;-67
2021/12/04 06:49:17;;;;;;;9.80;8.27;;;4.60;99.90;;;;;;5084716;28;20025;-67
2021/12/04 06:51:47;;;;;;;9.85;7.65;;;4.60;99.90;;;;;;5073285;28;20008;-67
2021/12/04 06:55:40;;;;;;;;;;;;;;;;;;;;;
2021/12/04 06:57:40;;;;;;;9.15;7.97;;;4.60;99.90;;;;;;5070769;28;20057;-67
2021/12/04 07:00:10;;;;;;;10.82;8.48;;;4.60;99.90;;;;;;5082231;28;20032;-68
2021/12/04 07:02:35;;;;;;;12.18;9.18;;;4.60;99.90;;;;;;5083303;28;20017;-68
2021/12/04 07:05:02;;;;;;;12.85;9.38;;;4.60;99.90;;;;;;5085628;28;20500;-68
2021/12/04 07:07:27;;;;;;;11.88;10.13;;;4.70;99.90;;;;;;5081332;28;20111;-67
2021/12/04 07:09:53;;;;;;;14.68;10.48;;;4.70;99.90;;;;;;5084585;28;20060;-67
2021/12/04 07:12:18;;;;;;;14.18;10.80;;;4.70;99.90;;;;;;5081495;28;20054;-68
2021/12/04 07:14:44;;;;;;;15.23;10.60;;;4.70;99.90;;;;;;5084226;28;20086;-67
2021/12/04 07:17:09;;;;;;;14.68;11.05;;;4.70;99.90;;;;;;5076863;28;20021;-67
2021/12/04 07:19:35;;;;;;;17.85;11.85;;;4.60;99.90;;;;;;5067372;28;20025;-67
2021/12/04 07:22:02;;;;;;;16.05;11.48;;;4.60;99.90;;;;;;5070133;28;20020;-68
2021/12/04 07:24:29;;;;;;;17.92;12.32;;;4.60;99.90;;;;;;5073725;28;20036;-67
2021/12/04 07:26:55;;;;;;;18.10;12.77;;;4.60;99.90;;;;;;5070872;28;20031;-67
2021/12/04 07:29:21;;;;;;;17.13;12.80;;;4.60;99.90;;;;;;5067206;28;20025;-67
2021/12/04 07:31:46;;;;;;;17.45;13.40;;;4.60;99.90;;;;;;5067278;28;20024;-67
2021/12/04 07:34:12;;;;;;;21.08;13.52;;;4.60;99.90;;;;;;5071840;28;20052;-67
2021/12/04 07:36:37;;;;;;;18.77;13.43;;;4.60;99.90;;;;;;5073194;28;20029;-67
2021/12/04 07:39:04;;;;;;;18.92;15.05;;;4.60;99.90;;;;;;5070681;28;20025;-66
2021/12/04 07:41:29;;;;;;;18.17;13.38;;;4.60;99.90;;;;;;5071918;28;20031;-67
2021/12/04 07:43:55;;;;;;;20.67;15.48;;;4.60;99.90;;;;;;5073502;28;20020;-67
2021/12/04 07:46:21;;;;;;;18.75;14.57;;;4.60;99.90;;;;;;5066901;28;20175;-67
2021/12/04 07:48:47;;;;;;;19.98;14.63;;;4.60;99.90;;;;;;5068626;28;20100;-67
2021/12/04 07:51:14;;;;;;;19.38;14.57;;;4.70;99.90;;;;;;5070347;28;20024;-67
2021/12/04 07:53:40;;;;;;;20.30;14.15;;;4.70;99.90;;;;;;5068711;28;20020;-67
2021/12/04 07:56:07;;;;;;;18.50;13.77;;;4.70;99.90;;;;;;5068364;28;20353;-68
2021/12/04 07:58:33;;;;;;;17.85;13.30;;;4.70;99.90;;;;;;5058879;28;20110;-67
2021/12/04 08:00:58;;;;;;;18.48;13.82;;;4.70;99.90;;;;;;5068954;28;20492;-67
2021/12/04 08:03:24;;;;;;;18.42;12.60;;;4.70;99.90;;;;;;5073282;28;20028;-67
2021/12/04 08:06:07;;;;;;;17.88;12.90;;;4.80;99.90;;;;;;5073632;28;20135;-67
2021/12/04 08:08:33;;;;;;;19.15;12.43;;;4.80;99.90;;;;;;5074383;28;20122;-67
2021/12/04 08:10:59;;;;;;;23.27;13.57;;;4.80;99.90;;;;;;5074434;28;20038;-67
2021/12/04 08:13:25;;;;;;;22.10;13.45;;;4.80;99.90;;;;;;5074503;28;20035;-67
2021/12/04 08:15:50;;;;;;;21.63;12.23;;;4.80;99.90;;;;;;5074037;28;20032;-67
2021/12/04 08:18:40;;;;;;;22.75;12.85;;;4.80;99.90;;;;;;5072659;28;20024;-66
2021/12/04 08:21:11;;;;;;;20.00;12.88;;;4.90;99.90;;;;;;5074279;28;20032;-67
2021/12/04 08:23:36;;;;;;;21.40;12.88;;;4.90;99.90;;;;;;5071992;28;20071;-67
2021/12/04 08:26:02;;;;;;;18.83;11.75;;;4.90;99.90;;;;;;5074065;28;20045;-68
2021/12/04 08:28:28;;;;;;;22.05;12.45;;;4.90;99.90;;;;;;5071249;28;20468;-67
2021/12/04 08:30:54;;;;;;;22.75;13.38;;;4.90;99.90;;;;;;5070462;28;20025;-67
2021/12/04 08:33:32;;;;;;;21.52;12.05;;;5.00;99.90;;;;;;5073767;28;20032;-67
2021/12/04 08:40:24;;;;;;;24.67;11.82;;;4.90;99.90;;;;;;5029106;28;20017;-67
2021/12/04 08:42:49;;;;;;;22.83;11.57;;;5.00;99.90;;;;;;5053016;28;20116;-67
2021/12/04 08:45:16;;;;;;;23.10;11.93;;;4.90;99.90;;;;;;5073696;28;20108;-67
2021/12/04 08:47:41;;;;;;;19.60;11.48;;;4.90;99.90;;;;;;5073649;28;20020;-67
2021/12/04 08:50:13;;;;;;;19.20;10.18;;;4.90;99.90;;;;;;5073714;28;20082;-67
2021/12/04 08:52:40;;;;;;;17.10;10.93;;;5.00;99.90;;;;;;5072135;28;20124;-67
2021/12/04 08:55:06;;;;;;;18.00;10.55;;;4.90;99.90;;;;;;5073360;28;20021;-67
2021/12/04 08:57:48;;;;;;;17.45;10.50;;;4.90;99.90;;;;;;5072894;28;20107;-67
2021/12/04 09:00:29;;;;;;;16.42;9.95;;;5.00;99.90;;;;;;5060071;28;20075;-67
2021/12/04 09:02:56;;;;;;;11.88;8.70;;;5.00;99.90;;;;;;5063622;28;20024;-67
2021/12/04 09:05:22;;;;;;;13.30;9.27;;;5.00;99.90;;;;;;5073310;28;20125;-67
2021/12/04 09:07:50;;;;;;;12.05;9.05;;;5.00;99.90;;;;;;5071755;28;20026;-67
2021/12/04 09:10:17;;;;;;;12.02;8.73;;;5.10;99.90;;;;;;5070487;28;20092;-67
2021/12/04 09:12:44;;;;;;;11.55;8.50;;;5.10;99.90;;;;;;5071096;28;20033;-67
2021/12/04 09:15:13;;;;;;;9.77;8.00;;;5.10;99.90;;;;;;5070355;28;20020;-67
2021/12/04 09:17:39;;;;;;;10.88;8.27;;;5.10;99.90;;;;;;5072681;28;20035;-67
2021/12/04 09:20:16;;;;;;;11.35;8.48;;;5.10;99.90;;;;;;5073056;28;20388;-67
2021/12/04 09:23:02;;;;;;;10.60;7.82;;;5.10;99.90;;;;;;5072999;28;20086;-66
2021/12/04 09:25:30;;;;;;;10.43;8.82;;;5.20;99.90;;;;;;5072926;28;20086;-67
2021/12/04 10:02:46;;;;;;;21.05;12.48;;;5.20;99.90;;;;;;5072566;28;20066;-67
2021/12/04 10:16:45;;;;;;;23.38;14.23;;;5.30;99.90;;;;;;5062381;28;20113;-67
2021/12/04 10:38:04;;;;;;;26.58;15.20;;;5.30;99.90;;;;;;5042329;28;20035;-66
2021/12/04 10:40:47;;;;;;;27.10;14.73;;;5.40;99.90;;;;;;5062487;28;20067;-67
2021/12/04 10:43:22;;;;;;;24.80;15.40;;;5.30;99.90;;;;;;5072286;28;20138;-68
2021/12/04 10:45:56;;;;;;;22.42;14.75;;;5.40;99.90;;;;;;5072237;28;20066;-68
2021/12/04 10:48:28;;;;;;;26.25;15.85;;;5.40;99.90;;;;;;5070943;28;20044;-67
2021/12/04 10:54:29;;;;;;;25.70;14.75;;;5.40;99.90;;;;;;5058674;28;20021;-67
2021/12/04 10:57:58;;;;;;;24.27;15.00;;;5.40;99.90;;;;;;5075912;28;20031;-67
2021/12/04 11:00:10;;;;;;;25.35;14.55;;;5.50;99.90;;;;;;5069874;28;20039;-67
2021/12/04 11:21:17;;;;;;;23.95;16.83;;;5.50;99.90;;;;;;5075219;28;20155;-67
2021/12/04 11:27:34;;;;;;;23.35;14.73;;;5.60;99.90;;;;;;5060042;28;20046;-67
2021/12/04 11:38:52;;;;;;;20.63;15.30;;;5.60;99.90;;;;;;5075144;28;20032;-68
2021/12/04 11:46:42;;;;;;;18.63;14.73;;;5.60;99.90;;;;;;5075338;28;20056;-67
2021/12/04 11:49:18;;;;;;;15.50;12.75;;;5.60;99.90;;;;;;5073911;28;20384;-67
2021/12/04 11:51:47;;;;;;;15.82;12.68;;;5.60;99.90;;;;;;5072941;28;20016;-68
2021/12/04 11:54:13;;;;;;;16.83;13.18;;;5.50;99.90;;;;;;5067808;28;20024;-67
2021/12/04 11:56:39;;;;;;;17.20;14.60;;;5.60;99.90;;;;;;5070318;28;20027;-68
2021/12/04 11:59:05;;;;;;;17.00;14.18;;;5.60;99.90;;;;;;5072913;28;20021;-67
2021/12/04 12:01:34;;;;;;;17.30;13.57;;;5.60;99.90;;;;;;5070309;28;20013;-67
2021/12/04 12:04:07;;;;;;;18.38;13.68;;;5.60;99.90;;;;;;5068373;28;20032;-67
2021/12/04 12:06:39;;;;;;;16.65;13.02;;;5.60;99.90;;;;;;5072674;28;20131;-67
2021/12/04 12:09:14;;;;;;;16.85;13.15;;;5.60;99.90;;;;;;5070571;28;20044;-67
2021/12/04 12:11:55;;;;;;;17.58;13.55;;;5.60;99.90;;;;;;5068338;28;20059;-67
2021/12/04 12:14:40;;;;;;;18.13;14.05;;;5.60;99.90;;;;;;5072277;28;20062;-67
2021/12/04 12:17:07;;;;;;;17.65;14.18;;;5.60;99.90;;;;;;5070717;28;20020;-67
2021/12/04 12:19:40;;;;;;;18.17;14.02;;;5.60;99.90;;;;;;5061785;28;20070;-67
2021/12/04 12:22:57;;;;;;;18.85;14.98;;;5.60;99.90;;;;;;5068652;28;20024;-67
2021/12/04 12:25:31;;;;;;;17.60;13.90;;;5.70;99.90;;;;;;5036841;28;20086;-67
2021/12/04 12:36:28;;;;;;;19.27;14.65;;;5.70;99.90;;;;;;5074289;28;20033;-67
2021/12/04 12:39:05;;;;;;;17.30;13.90;;;5.70;99.90;;;;;;5074144;28;20028;-67
2021/12/04 12:41:41;;;;;;;16.05;13.40;;;5.80;99.90;;;;;;5073855;28;20107;-67
2021/12/04 12:44:11;;;;;;;17.23;13.82;;;5.80;99.90;;;;;;5073676;28;20020;-68
2021/12/04 12:47:09;;;;;;;17.13;13.93;;;5.80;99.90;;;;;;5073794;28;20021;-67
2021/12/04 12:49:38;;;;;;;18.40;13.48;;;5.80;99.90;;;;;;5050669;28;20380;-67
2021/12/04 12:52:09;;;;;;;17.10;14.43;;;5.70;99.90;;;;;;5073796;28;20074;-68
2021/12/04 12:54:57;;;;;;;19.70;15.02;;;5.70;99.90;;;;;;5073544;28;20040;-67
2021/12/04 12:58:04;;;;;;;20.48;14.73;;;5.70;99.90;;;;;;5073657;28;20086;-67
2021/12/04 13:11:43;;;;;;;19.80;14.93;;;5.80;99.90;;;;;;5073276;28;20559;-67
2021/12/04 13:17:29;;;;;;;17.55;14.02;;;5.80;99.90;;;;;;5043702;28;20029;-66
2021/12/04 13:19:57;;;;;;;17.10;12.77;;;5.80;99.90;;;;;;5068172;28;20108;-67
2021/12/04 13:22:29;;;;;;;14.15;11.93;;;5.80;99.90;;;;;;5071042;28;20074;-67
2021/12/04 13:25:02;;;;;;;16.80;12.32;;;5.90;99.90;;;;;;5073232;28;20025;-67
2021/12/04 13:33:33;;;;;;;13.13;11.52;;;6.00;99.90;;;;;;4959967;28;20038;-68
2021/12/04 13:35:58;;;;;;;15.32;11.63;;;5.90;99.90;;;;;;5066421;28;20047;-70
2021/12/04 13:38:25;;;;;;;15.00;11.07;;;5.90;99.90;;;;;;5070750;28;20028;-68
2021/12/04 13:40:53;;;;;;;16.13;11.80;;;5.90;99.90;;;;;;5067768;28;20031;-67
2021/12/04 13:43:19;;;;;;;13.25;10.65;;;6.00;99.90;;;;;;5071900;28;20023;-67
2021/12/04 13:45:45;;;;;;;14.15;11.48;;;6.00;99.90;;;;;;5071706;28;20024;-67
2021/12/04 13:48:12;;;;;;;14.32;12.43;;;6.00;99.90;;;;;;5072105;28;20020;-67
2021/12/04 13:53:26;;;;;;;13.43;11.15;;;6.00;99.90;;;;;;5072598;28;20055;-67
2021/12/04 13:56:13;;;;;;;14.88;11.88;;;6.10;99.90;;;;;;5071372;28;20040;-67
2021/12/04 13:59:31;;;;;;;14.80;12.05;;;6.10;99.90;;;;;;5072656;28;20529;-68
2021/12/04 14:02:24;;;;;;;14.85;11.75;;;6.10;99.90;;;;;;5047287;28;20033;-67
2021/12/04 14:16:05;;;;;;;18.83;12.93;;;6.00;99.90;;;;;;4913779;28;20038;-67
2021/12/04 14:19:33;;;;;;;;;;;;;;;;;;;;;
2021/12/04 14:25:42;;;;;;;15.32;11.15;;;6.10;99.90;;;;;;4985892;28;20127;-67
2021/12/04 14:28:08;;;;;;;13.80;11.23;;;6.10;99.90;;;;;;4975178;28;20025;-67
2021/12/04 14:30:35;;;;;;;14.52;12.05;;;6.10;99.90;;;;;;5024912;28;20071;-67
2021/12/04 14:33:07;;;;;;;14.13;11.45;;;6.10;99.90;;;;;;5051854;28;20104;-67
2021/12/04 14:35:45;;;;;;;13.82;11.52;;;6.20;99.90;;;;;;5045927;28;20021;-67
2021/12/04 14:38:40;;;;;;;;;;;;;;;;;;;;;
2021/12/04 14:41:07;;;;;;;15.57;11.88;;;6.20;99.90;;;;;;5052420;28;20023;-67
2021/12/04 14:43:36;;;;;;;14.48;11.02;;;6.20;99.90;;;;;;5054754;28;20555;-67
2021/12/04 14:53:38;;;;;;;;;;;;;;;;;;;;;
2021/12/04 14:56:08;;;;;;;13.32;11.38;;;6.30;99.90;;;;;;4972058;28;20040;-67
2021/12/04 14:58:34;;;;;;;14.85;11.63;;;6.20;99.90;;;;;;5052684;28;20051;-67
2021/12/04 15:01:03;;;;;;;14.88;11.77;;;6.30;99.90;;;;;;5047532;28;20090;-67
2021/12/04 15:03:44;;;;;;;13.02;10.43;;;6.30;99.90;;;;;;5050167;28;20369;-67
2021/12/04 15:06:14;;;;;;;16.55;12.85;;;6.30;99.90;;;;;;5046664;28;20044;-67
2021/12/04 15:08:47;;;;;;;17.70;12.80;;;6.30;99.90;;;;;;5055714;28;20052;-67
2021/12/04 15:11:19;;;;;;;15.93;12.57;;;6.30;99.90;;;;;;5056024;28;20065;-67
2021/12/04 15:13:52;;;;;;;18.88;13.65;;;6.40;99.90;;;;;;5062855;28;20431;-68
2021/12/04 15:19:37;;;;;;;20.08;14.35;;;6.40;99.90;;;;;;5050639;28;20175;-67
2021/12/04 15:22:03;;;;;;;20.13;13.07;;;6.40;99.90;;;;;;5070825;28;20480;-67
2021/12/04 15:24:37;;;;;;;18.67;12.23;;;6.40;99.90;;;;;;5063704;28;20039;-68
2021/12/04 15:27:07;;;;;;;16.38;11.60;;;6.40;99.90;;;;;;5070704;28;20473;-67
2021/12/04 15:29:35;;;;;;;14.03;10.13;;;6.50;99.90;;;;;;5070546;28;20021;-67
2021/12/04 15:32:07;;;;;;;13.98;9.45;;;6.50;99.90;;;;;;5074025;28;20036;-68
2021/12/04 15:34:40;;;;;;;12.18;8.63;;;6.50;99.90;;;;;;5072995;28;20028;-67
2021/12/04 15:37:06;;;;;;;13.30;8.30;;;6.50;99.90;;;;;;5075037;28;20467;-67
2021/12/04 15:39:37;;;;;;;13.65;7.85;;;6.50;99.90;;;;;;5074588;28;20074;-66
2021/12/04 15:42:23;;;;;;;13.40;7.93;;;6.50;99.90;;;;;;5075131;28;20432;-68
2021/12/04 15:50:50;;;;;;;11.63;5.75;;;6.50;99.90;;;;;;5074562;28;20027;-67
2021/12/04 15:53:16;;;;;;;9.88;6.00;;;6.50;99.90;;;;;;5070657;28;20040;-67
2021/12/04 15:55:45;;;;;;;10.10;5.72;;;6.40;99.90;;;;;;5070395;28;20036;-67
2021/12/04 15:58:14;;;;;;;10.00;5.43;;;6.40;99.90;;;;;;5054897;28;20036;-67
2021/12/04 16:00:53;;;;;;;9.25;5.82;;;6.40;99.90;;;;;;5055205;28;20025;-67
2021/12/04 16:03:21;;;;;;;9.60;4.75;;;6.40;99.90;;;;;;5071169;28;20028;-67
2021/12/04 16:06:00;;;;;;;7.68;4.63;;;6.40;99.90;;;;;;5073599;28;20043;-67
2021/12/04 16:08:29;;;;;;;9.85;5.68;;;6.50;99.90;;;;;;5071211;28;20040;-67
2021/12/04 16:10:56;;;;;;;9.38;4.65;;;6.40;99.90;;;;;;5074617;28;20039;-66
2021/12/04 16:13:26;;;;;;;9.65;4.25;;;6.40;99.90;;;;;;5073157;28;20028;-67
2021/12/04 16:15:53;;;;;;;9.20;4.25;;;6.40;99.90;;;;;;5074437;28;20020;-67
2021/12/04 16:18:19;;;;;;;6.32;3.72;;;6.40;99.90;;;;;;5074156;28;20060;-67
2021/12/04 16:20:46;;;;;;;10.85;4.45;;;6.40;99.90;;;;;;5072994;28;20040;-66
2021/12/04 16:23:14;;;;;;;9.15;4.95;;;6.40;99.90;;;;;;5070536;28;20476;-67
2021/12/04 16:25:40;;;;;;;10.90;4.53;;;6.50;99.90;;;;;;5070674;28;20071;-66
2021/12/04 16:30:49;;;;;;;8.75;4.50;;;6.50;99.90;;;;;;5073371;28;20105;-66
2021/12/04 16:35:55;;;;;;;6.97;3.55;;;6.40;99.90;;;;;;5074095;28;20033;-67
2021/12/04 16:38:22;;;;;;;7.40;3.35;;;6.50;99.90;;;;;;5073994;28;20025;-67
2021/12/04 16:40:50;;;;;;;5.30;3.10;;;6.50;99.90;;;;;;5074213;28;20029;-67
2021/12/04 16:43:31;;;;;;;6.55;3.10;;;6.50;99.90;;;;;;5073741;28;20032;-67
2021/12/04 16:46:00;;;;;;;5.68;2.90;;;6.50;99.90;;;;;;5072453;28;20029;-67
2021/12/04 16:59:35;;;;;;;4.30;1.90;;;6.40;99.90;;;;;;5071954;28;20067;-67
2021/12/04 17:02:03;;;;;;;4.45;2.20;;;6.40;99.90;;;;;;5068228;28;20138;-66
2021/12/04 17:04:31;;;;;;;5.13;2.05;;;6.40;99.90;;;;;;5066405;28;20017;-67
2021/12/04 17:06:58;;;;;;;4.72;2.05;;;6.40;99.90;;;;;;5073071;28;20497;-66
2021/12/04 17:09:25;;;;;;;4.63;2.05;;;6.40;99.90;;;;;;5073307;28;20028;-67